Strona główna
METAR-TAF:

METAR-TAF

Lotnisko :

Waterbury-Oxford Airport

Oxford, Connecticut, Stany Zjednoczone

Szerokość geograficzna: 41-29N, Długość geograficzna: 073-08W, wysokość: 222 m

Aktualna obserwacja pogody

Raport powstał 55 minut temu, godzina 08:51 UTC
Cisza
Temperatura -3°C
Wilgotność 86%
Ciśnienie 1021 hPa
bezchmurnie

METAR: KOXC 220851Z AUTO 00000KT CLR M03/M05 A3016 RMK AO2 SLP232 T10331050 53007 PWINO FZRANO $

czas: 05:46 (09:46 UTC)


TAF: brakujący

Obserwacja i prognoza pogody dla ponad 4000 lotnisk (raport METAR i TAF).

Dostępne stacje oznaczono żółtymi i czerwonymi punktami na mapie.

Najedź kursorem aby zobaczyć nazwę stacji.

Kliknij aby zobaczyć obserwacje i prognozy pogody.

Aby zmienić mapę: kliknij na zielony przycisk z czarnym krzyżykiem, aby powiększyć; na zielony przycisk z myślnikiem, aby pomniejszyć; na zielone strzałki, aby przejść do map sąsiednich.


METAR-TAF: